SVR106 USKK-UUDD
Flight info
| Callsign | SVR106 |
|---|---|
| Flight time | 1h 21m |
| Altitude | 36000 |
| Route | ASTAK2C ASTAK T646 OGSIN N604 GEMPU M864 IBROT T535 OKNAN T787 URAGO URAGO3P |
| Aircraft | A320/M-SDE3FGHIRWY/LB1 |
Departure
| Time | 2026-05-07 16:57 |
|---|---|
| Airport | Pobedilovo Airport (USKK) |
Arrival
| Time | 2026-05-07 18:18 |
|---|---|
| Airport | Domodedovo International Airport (UUDD) |
| Time | Latitude | Longitude | Altitude | Speed | Heading |
|---|---|---|---|---|---|
| 2026-05-07 16:42 | 58.49689 | 49.34393 | 486 ft | 0 kts | 137° |
| 2026-05-07 16:47 | 58.49690 | 49.34390 | 480 ft | 3 kts | 137° |
| 2026-05-07 16:47 | 58.49704 | 49.34365 | 480 ft | 3 kts | 126° |
| 2026-05-07 16:47 | 58.49715 | 49.34335 | 479 ft | 3 kts | 128° |
| 2026-05-07 16:48 | 58.49724 | 49.34304 | 477 ft | 3 kts | 70° |
| 2026-05-07 16:48 | 58.49720 | 49.34289 | 477 ft | 0 kts | 52° |
| 2026-05-07 16:50 | 58.49721 | 49.34291 | 477 ft | 0 kts | 52° |
| 2026-05-07 16:52 | 58.49722 | 49.34292 | 477 ft | 1 kts | 52° |
| 2026-05-07 16:52 | 58.49725 | 49.34341 | 486 ft | 6 kts | 92° |
| 2026-05-07 16:52 | 58.49743 | 49.34423 | 477 ft | 8 kts | 49° |
| 2026-05-07 16:53 | 58.49789 | 49.34516 | 479 ft | 11 kts | 39° |
| 2026-05-07 16:53 | 58.49869 | 49.34545 | 485 ft | 13 kts | 2° |
| 2026-05-07 16:53 | 58.49948 | 49.34450 | 485 ft | 15 kts | 315° |
| 2026-05-07 16:53 | 58.50029 | 49.34302 | 483 ft | 17 kts | 316° |
| 2026-05-07 16:54 | 58.50086 | 49.34161 | 481 ft | 11 kts | 261° |
| 2026-05-07 16:54 | 58.50038 | 49.34039 | 483 ft | 13 kts | 227° |
| 2026-05-07 16:54 | 58.49958 | 49.33875 | 486 ft | 20 kts | 227° |
| 2026-05-07 16:54 | 58.49858 | 49.33664 | 481 ft | 23 kts | 229° |
| 2026-05-07 16:55 | 58.49750 | 49.33432 | 479 ft | 24 kts | 227° |
| 2026-05-07 16:55 | 58.49634 | 49.33193 | 486 ft | 24 kts | 226° |
| 2026-05-07 16:55 | 58.49533 | 49.33067 | 484 ft | 10 kts | 217° |
| 2026-05-07 16:55 | 58.49560 | 49.33024 | 487 ft | 6 kts | 39° |
| 2026-05-07 16:56 | 58.49673 | 49.33270 | 482 ft | 57 kts | 47° |
| 2026-05-07 16:56 | 58.50090 | 49.34146 | 484 ft | 118 kts | 47° |
| 2026-05-07 16:56 | 58.51497 | 49.37150 | 1063 ft | 163 kts | 49° |
| 2026-05-07 16:57 | 58.52235 | 49.38757 | 1713 ft | 163 kts | 49° |
| 2026-05-07 16:57 | 58.53003 | 49.40425 | 2089 ft | 177 kts | 49° |
| 2026-05-07 16:57 | 58.53879 | 49.42275 | 2371 ft | 197 kts | 48° |
| 2026-05-07 16:57 | 58.54845 | 49.44293 | 2721 ft | 214 kts | 48° |
| 2026-05-07 16:58 | 58.55841 | 49.46544 | 3251 ft | 225 kts | 59° |
| 2026-05-07 16:58 | 58.56229 | 49.49530 | 3649 ft | 245 kts | 98° |
| 2026-05-07 16:58 | 58.55505 | 49.52532 | 4134 ft | 259 kts | 136° |
| 2026-05-07 16:58 | 58.53918 | 49.54145 | 4862 ft | 263 kts | 173° |
| 2026-05-07 16:59 | 58.52138 | 49.53686 | 5670 ft | 261 kts | 210° |
| 2026-05-07 16:59 | 58.50710 | 49.51597 | 6573 ft | 258 kts | 228° |
| 2026-05-07 16:59 | 58.49515 | 49.49061 | 7467 ft | 257 kts | 233° |
| 2026-05-07 16:59 | 58.48344 | 49.46468 | 8330 ft | 258 kts | 233° |
| 2026-05-07 17:00 | 58.47170 | 49.43863 | 9201 ft | 260 kts | 234° |
| 2026-05-07 17:00 | 58.45959 | 49.41264 | 9865 ft | 265 kts | 231° |
| 2026-05-07 17:00 | 58.44587 | 49.38887 | 10024 ft | 267 kts | 226° |
| 2026-05-07 17:00 | 58.43132 | 49.36676 | 10042 ft | 267 kts | 224° |
| 2026-05-07 17:01 | 58.41654 | 49.34523 | 10050 ft | 267 kts | 223° |
| 2026-05-07 17:01 | 58.40180 | 49.32370 | 10048 ft | 267 kts | 224° |
| 2026-05-07 17:01 | 58.38676 | 49.30126 | 10048 ft | 293 kts | 224° |
| 2026-05-07 17:01 | 58.37012 | 49.27582 | 10051 ft | 318 kts | 224° |
| 2026-05-07 17:02 | 58.35262 | 49.24908 | 10047 ft | 325 kts | 224° |
| 2026-05-07 17:02 | 58.33492 | 49.22217 | 10049 ft | 326 kts | 224° |
| 2026-05-07 17:02 | 58.31716 | 49.19513 | 10051 ft | 327 kts | 224° |
| 2026-05-07 17:02 | 58.29944 | 49.16811 | 10051 ft | 326 kts | 224° |
| 2026-05-07 17:03 | 58.28172 | 49.14110 | 10069 ft | 328 kts | 224° |
| 2026-05-07 17:03 | 58.26377 | 49.11368 | 10698 ft | 331 kts | 224° |
| 2026-05-07 17:03 | 58.24575 | 49.08619 | 11425 ft | 333 kts | 224° |
| 2026-05-07 17:03 | 58.22761 | 49.05852 | 12101 ft | 336 kts | 224° |
| 2026-05-07 17:04 | 58.20929 | 49.03062 | 12767 ft | 339 kts | 223° |
| 2026-05-07 17:04 | 58.19079 | 49.00253 | 13441 ft | 343 kts | 223° |
| 2026-05-07 17:04 | 58.17207 | 48.97417 | 14081 ft | 346 kts | 223° |
| 2026-05-07 17:04 | 58.15323 | 48.94572 | 14665 ft | 349 kts | 223° |
| 2026-05-07 17:05 | 58.13416 | 48.91695 | 15237 ft | 352 kts | 223° |
| 2026-05-07 17:05 | 58.11431 | 48.88933 | 15801 ft | 358 kts | 217° |
| 2026-05-07 17:05 | 58.09299 | 48.86451 | 16370 ft | 361 kts | 216° |
| 2026-05-07 17:05 | 58.07171 | 48.83986 | 16950 ft | 364 kts | 216° |
| 2026-05-07 17:06 | 58.04974 | 48.81450 | 17543 ft | 368 kts | 216° |
| 2026-05-07 17:06 | 58.02805 | 48.78949 | 18134 ft | 371 kts | 216° |
| 2026-05-07 17:06 | 58.00593 | 48.76400 | 18680 ft | 374 kts | 216° |
| 2026-05-07 17:06 | 57.98359 | 48.73836 | 19219 ft | 377 kts | 216° |
| 2026-05-07 17:07 | 57.96109 | 48.71255 | 19777 ft | 380 kts | 216° |
| 2026-05-07 17:07 | 57.93842 | 48.68649 | 20306 ft | 383 kts | 216° |
| 2026-05-07 17:07 | 57.91556 | 48.66021 | 20820 ft | 387 kts | 216° |
| 2026-05-07 17:07 | 57.89252 | 48.63375 | 21308 ft | 390 kts | 216° |
| 2026-05-07 17:08 | 57.86930 | 48.60713 | 21783 ft | 392 kts | 216° |
| 2026-05-07 17:08 | 57.84589 | 48.58037 | 22242 ft | 395 kts | 216° |
| 2026-05-07 17:08 | 57.82229 | 48.55344 | 22687 ft | 398 kts | 216° |
| 2026-05-07 17:08 | 57.79847 | 48.52634 | 23133 ft | 401 kts | 216° |
| 2026-05-07 17:09 | 57.77516 | 48.49762 | 23563 ft | 400 kts | 223° |
| 2026-05-07 17:09 | 57.75500 | 48.46209 | 23924 ft | 397 kts | 233° |
| 2026-05-07 17:09 | 57.73891 | 48.42040 | 24280 ft | 394 kts | 243° |
| 2026-05-07 17:09 | 57.72711 | 48.37409 | 24635 ft | 394 kts | 250° |
| 2026-05-07 17:10 | 57.71645 | 48.32678 | 24972 ft | 396 kts | 250° |
| 2026-05-07 17:10 | 57.70565 | 48.27916 | 25272 ft | 399 kts | 249° |
| 2026-05-07 17:10 | 57.69470 | 48.23125 | 25600 ft | 402 kts | 249° |
| 2026-05-07 17:10 | 57.68363 | 48.18313 | 25933 ft | 404 kts | 249° |
| 2026-05-07 17:11 | 57.67243 | 48.13482 | 26275 ft | 406 kts | 249° |
| 2026-05-07 17:11 | 57.66113 | 48.08630 | 26620 ft | 408 kts | 249° |
| 2026-05-07 17:11 | 57.64978 | 48.03759 | 26963 ft | 410 kts | 249° |
| 2026-05-07 17:11 | 57.63838 | 47.98864 | 27296 ft | 412 kts | 249° |
| 2026-05-07 17:12 | 57.62710 | 47.94009 | 27610 ft | 414 kts | 249° |
| 2026-05-07 17:12 | 57.61563 | 47.89069 | 27982 ft | 415 kts | 249° |
| 2026-05-07 17:12 | 57.60413 | 47.84144 | 28471 ft | 413 kts | 249° |
| 2026-05-07 17:12 | 57.59265 | 47.79240 | 28945 ft | 412 kts | 249° |
| 2026-05-07 17:13 | 57.58117 | 47.74350 | 29350 ft | 412 kts | 249° |
| 2026-05-07 17:13 | 57.56965 | 47.69454 | 29758 ft | 413 kts | 249° |
| 2026-05-07 17:13 | 57.55811 | 47.64566 | 30188 ft | 412 kts | 248° |
| 2026-05-07 17:13 | 57.54658 | 47.59689 | 30603 ft | 411 kts | 248° |
| 2026-05-07 17:14 | 57.53512 | 47.54844 | 31031 ft | 409 kts | 248° |
| 2026-05-07 17:14 | 57.52365 | 47.50011 | 31471 ft | 407 kts | 248° |
| 2026-05-07 17:14 | 57.51215 | 47.45192 | 31918 ft | 406 kts | 248° |
| 2026-05-07 17:14 | 57.50068 | 47.40399 | 32378 ft | 404 kts | 248° |
| 2026-05-07 17:15 | 57.48929 | 47.35638 | 32832 ft | 402 kts | 248° |
| 2026-05-07 17:15 | 57.47798 | 47.30901 | 33274 ft | 400 kts | 248° |
| 2026-05-07 17:15 | 57.46668 | 47.26172 | 33732 ft | 399 kts | 248° |
| 2026-05-07 17:15 | 57.45545 | 47.21466 | 34122 ft | 397 kts | 248° |
| 2026-05-07 17:16 | 57.44423 | 47.16777 | 34382 ft | 399 kts | 248° |
| 2026-05-07 17:16 | 57.43291 | 47.12068 | 34640 ft | 400 kts | 248° |
| 2026-05-07 17:16 | 57.42153 | 47.07354 | 34908 ft | 400 kts | 248° |
| 2026-05-07 17:16 | 57.41010 | 47.02643 | 35186 ft | 401 kts | 248° |
| 2026-05-07 17:17 | 57.39878 | 46.97994 | 35456 ft | 401 kts | 248° |
| 2026-05-07 17:17 | 57.38730 | 46.93282 | 35728 ft | 401 kts | 248° |
| 2026-05-07 17:17 | 57.37577 | 46.88555 | 35915 ft | 402 kts | 247° |
| 2026-05-07 17:17 | 57.36416 | 46.83809 | 35959 ft | 407 kts | 246° |
| 2026-05-07 17:18 | 57.33101 | 46.75143 | 35966 ft | 420 kts | 227° |
| 2026-05-07 17:18 | 57.28471 | 46.68382 | 35952 ft | 426 kts | 220° |
| 2026-05-07 17:19 | 57.23720 | 46.61825 | 35961 ft | 427 kts | 220° |
| 2026-05-07 17:19 | 57.18958 | 46.55242 | 35953 ft | 427 kts | 220° |
| 2026-05-07 17:20 | 57.14198 | 46.48676 | 35955 ft | 428 kts | 220° |
| 2026-05-07 17:20 | 57.09424 | 46.42125 | 35945 ft | 428 kts | 220° |
| 2026-05-07 17:21 | 57.04650 | 46.35600 | 35941 ft | 428 kts | 219° |
| 2026-05-07 17:21 | 56.99869 | 46.29090 | 35943 ft | 429 kts | 219° |
| 2026-05-07 17:22 | 56.95070 | 46.22576 | 35944 ft | 429 kts | 219° |
| 2026-05-07 17:22 | 56.90298 | 46.16128 | 35944 ft | 429 kts | 219° |
| 2026-05-07 17:23 | 56.85496 | 46.09649 | 35949 ft | 430 kts | 219° |
| 2026-05-07 17:23 | 56.80687 | 46.03166 | 35933 ft | 430 kts | 219° |
| 2026-05-07 17:24 | 56.75866 | 45.96708 | 35938 ft | 430 kts | 219° |
| 2026-05-07 17:24 | 56.71032 | 45.90261 | 35933 ft | 430 kts | 219° |
| 2026-05-07 17:25 | 56.66985 | 45.84989 | 35936 ft | 430 kts | 218° |
| 2026-05-07 17:25 | 56.61237 | 45.77737 | 35938 ft | 430 kts | 218° |
| 2026-05-07 17:26 | 56.57140 | 45.72597 | 35933 ft | 431 kts | 217° |
| 2026-05-07 17:26 | 56.52214 | 45.66414 | 35931 ft | 431 kts | 218° |
| 2026-05-07 17:27 | 56.47295 | 45.60220 | 35907 ft | 431 kts | 217° |
| 2026-05-07 17:27 | 56.42371 | 45.54030 | 35905 ft | 431 kts | 217° |
| 2026-05-07 17:28 | 56.37435 | 45.47850 | 35909 ft | 432 kts | 217° |
| 2026-05-07 17:28 | 56.32487 | 45.41688 | 35899 ft | 432 kts | 217° |
| 2026-05-07 17:29 | 56.27853 | 45.34885 | 35910 ft | 428 kts | 231° |
| 2026-05-07 17:29 | 56.24717 | 45.25958 | 35907 ft | 424 kts | 249° |
| 2026-05-07 17:30 | 56.22560 | 45.16107 | 35909 ft | 424 kts | 250° |
| 2026-05-07 17:30 | 56.20381 | 45.06245 | 35913 ft | 425 kts | 249° |
| 2026-05-07 17:31 | 56.18189 | 44.96391 | 35918 ft | 425 kts | 249° |
| 2026-05-07 17:31 | 56.15983 | 44.86541 | 35933 ft | 425 kts | 249° |
| 2026-05-07 17:32 | 56.13776 | 44.76694 | 35933 ft | 425 kts | 249° |
| 2026-05-07 17:32 | 56.11649 | 44.66817 | 35928 ft | 424 kts | 255° |
| 2026-05-07 17:33 | 56.10736 | 44.56422 | 35924 ft | 423 kts | 264° |
| 2026-05-07 17:33 | 56.10126 | 44.45942 | 35924 ft | 423 kts | 264° |
| 2026-05-07 17:34 | 56.09492 | 44.35449 | 35907 ft | 424 kts | 264° |
| 2026-05-07 17:34 | 56.08851 | 44.25021 | 35903 ft | 424 kts | 264° |
| 2026-05-07 17:35 | 56.08189 | 44.14525 | 35907 ft | 425 kts | 264° |
| 2026-05-07 17:35 | 56.07523 | 44.03997 | 35906 ft | 425 kts | 264° |
| 2026-05-07 17:36 | 56.06858 | 43.93475 | 35909 ft | 425 kts | 264° |
| 2026-05-07 17:36 | 56.06183 | 43.82956 | 35922 ft | 425 kts | 263° |
| 2026-05-07 17:37 | 56.05494 | 43.72455 | 35920 ft | 425 kts | 263° |
| 2026-05-07 17:37 | 56.04790 | 43.61968 | 35913 ft | 424 kts | 263° |
| 2026-05-07 17:38 | 56.04075 | 43.51475 | 35916 ft | 425 kts | 263° |
| 2026-05-07 17:38 | 56.03357 | 43.41064 | 35920 ft | 425 kts | 263° |
| 2026-05-07 17:39 | 56.02915 | 43.30495 | 35922 ft | 424 kts | 272° |
| 2026-05-07 17:39 | 56.03118 | 43.19940 | 35923 ft | 424 kts | 271° |
| 2026-05-07 17:40 | 56.03287 | 43.09400 | 35924 ft | 424 kts | 271° |
| 2026-05-07 17:40 | 56.03447 | 42.98847 | 35923 ft | 425 kts | 271° |
| 2026-05-07 17:41 | 56.03591 | 42.88348 | 35913 ft | 425 kts | 271° |
| 2026-05-07 17:41 | 56.03729 | 42.77783 | 35921 ft | 425 kts | 271° |
| 2026-05-07 17:42 | 56.03864 | 42.67201 | 35922 ft | 425 kts | 271° |
| 2026-05-07 17:42 | 56.03890 | 42.56626 | 35923 ft | 425 kts | 264° |
| 2026-05-07 17:43 | 56.02447 | 42.46411 | 35923 ft | 426 kts | 249° |
| 2026-05-07 17:43 | 56.00210 | 42.36598 | 35922 ft | 426 kts | 249° |
| 2026-05-07 17:44 | 55.97972 | 42.26784 | 35921 ft | 427 kts | 249° |
| 2026-05-07 17:44 | 55.95725 | 42.16975 | 35916 ft | 427 kts | 249° |
| 2026-05-07 17:45 | 55.93462 | 42.07164 | 35930 ft | 427 kts | 249° |
| 2026-05-07 17:45 | 55.91209 | 41.97459 | 35930 ft | 427 kts | 248° |
| 2026-05-07 17:46 | 55.88927 | 41.87680 | 35928 ft | 427 kts | 248° |
| 2026-05-07 17:46 | 55.86306 | 41.78204 | 35927 ft | 428 kts | 236° |
| 2026-05-07 17:47 | 55.82341 | 41.70248 | 35919 ft | 430 kts | 228° |
| 2026-05-07 17:47 | 55.78182 | 41.62603 | 35921 ft | 431 kts | 228° |
| 2026-05-07 17:48 | 55.74024 | 41.54963 | 35925 ft | 431 kts | 228° |
| 2026-05-07 17:48 | 55.69862 | 41.47317 | 35926 ft | 431 kts | 228° |
| 2026-05-07 17:49 | 55.65723 | 41.39734 | 35926 ft | 431 kts | 228° |
| 2026-05-07 17:49 | 55.61583 | 41.32068 | 35915 ft | 430 kts | 232° |
| 2026-05-07 17:50 | 55.58648 | 41.22994 | 35916 ft | 425 kts | 252° |
| 2026-05-07 17:50 | 55.57699 | 41.12752 | 35916 ft | 424 kts | 269° |
| 2026-05-07 17:51 | 55.57519 | 41.02325 | 35916 ft | 424 kts | 268° |
| 2026-05-07 17:51 | 55.57309 | 40.91900 | 35917 ft | 425 kts | 268° |
| 2026-05-07 17:52 | 55.57093 | 40.81461 | 35921 ft | 425 kts | 268° |
| 2026-05-07 17:52 | 55.56880 | 40.71009 | 35922 ft | 425 kts | 268° |
| 2026-05-07 17:53 | 55.56662 | 40.60645 | 35922 ft | 425 kts | 268° |
| 2026-05-07 17:53 | 55.56418 | 40.50069 | 35839 ft | 436 kts | 268° |
| 2026-05-07 17:54 | 55.56291 | 40.44728 | 35654 ft | 431 kts | 268° |
| 2026-05-07 17:54 | 55.56156 | 40.39511 | 35475 ft | 419 kts | 268° |
| 2026-05-07 17:54 | 55.56016 | 40.34429 | 35161 ft | 412 kts | 267° |
| 2026-05-07 17:54 | 55.55872 | 40.29402 | 34770 ft | 408 kts | 267° |
| 2026-05-07 17:55 | 55.55728 | 40.24422 | 34365 ft | 404 kts | 267° |
| 2026-05-07 17:55 | 55.55585 | 40.19487 | 33959 ft | 401 kts | 267° |
| 2026-05-07 17:55 | 55.55440 | 40.14592 | 33489 ft | 397 kts | 267° |
| 2026-05-07 17:55 | 55.55294 | 40.09737 | 33000 ft | 394 kts | 267° |
| 2026-05-07 17:56 | 55.55148 | 40.04911 | 32519 ft | 391 kts | 267° |
| 2026-05-07 17:56 | 55.55027 | 40.00135 | 32057 ft | 388 kts | 271° |
| 2026-05-07 17:56 | 55.55234 | 39.95402 | 31590 ft | 385 kts | 276° |
| 2026-05-07 17:56 | 55.55495 | 39.90697 | 31139 ft | 383 kts | 276° |
| 2026-05-07 17:57 | 55.55751 | 39.86029 | 30738 ft | 379 kts | 275° |
| 2026-05-07 17:57 | 55.55917 | 39.82963 | 30474 ft | 377 kts | 275° |
| 2026-05-07 17:57 | 55.56239 | 39.76933 | 29474 ft | 371 kts | 275° |
| 2026-05-07 17:57 | 55.56478 | 39.72406 | 28655 ft | 367 kts | 275° |
| 2026-05-07 17:58 | 55.56712 | 39.67947 | 27898 ft | 363 kts | 275° |
| 2026-05-07 17:58 | 55.56942 | 39.63533 | 27176 ft | 359 kts | 275° |
| 2026-05-07 17:58 | 55.57167 | 39.59169 | 26464 ft | 355 kts | 275° |
| 2026-05-07 17:58 | 55.57386 | 39.54854 | 25761 ft | 350 kts | 274° |
| 2026-05-07 17:59 | 55.57604 | 39.50588 | 25064 ft | 347 kts | 275° |
| 2026-05-07 17:59 | 55.57852 | 39.46384 | 24376 ft | 343 kts | 275° |
| 2026-05-07 17:59 | 55.58124 | 39.42219 | 23692 ft | 339 kts | 276° |
| 2026-05-07 17:59 | 55.58403 | 39.38099 | 22930 ft | 336 kts | 276° |
| 2026-05-07 18:00 | 55.58678 | 39.34025 | 22149 ft | 332 kts | 275° |
| 2026-05-07 18:00 | 55.58945 | 39.29998 | 21408 ft | 328 kts | 275° |
| 2026-05-07 18:00 | 55.59205 | 39.26009 | 20684 ft | 324 kts | 275° |
| 2026-05-07 18:00 | 55.59458 | 39.22080 | 20031 ft | 319 kts | 275° |
| 2026-05-07 18:01 | 55.59704 | 39.18225 | 19384 ft | 314 kts | 274° |
| 2026-05-07 18:01 | 55.59944 | 39.14402 | 18714 ft | 310 kts | 274° |
| 2026-05-07 18:01 | 55.60175 | 39.10632 | 18038 ft | 308 kts | 274° |
| 2026-05-07 18:01 | 55.60404 | 39.06891 | 17313 ft | 304 kts | 274° |
| 2026-05-07 18:02 | 55.60850 | 38.99541 | 15929 ft | 297 kts | 274° |
| 2026-05-07 18:02 | 55.61067 | 38.95936 | 15276 ft | 293 kts | 274° |
| 2026-05-07 18:02 | 55.61278 | 38.92422 | 14648 ft | 289 kts | 274° |
| 2026-05-07 18:03 | 55.61494 | 38.88855 | 14018 ft | 286 kts | 274° |
| 2026-05-07 18:03 | 55.61692 | 38.85419 | 13378 ft | 283 kts | 273° |
| 2026-05-07 18:03 | 55.61878 | 38.81976 | 12709 ft | 279 kts | 273° |
| 2026-05-07 18:03 | 55.62055 | 38.78571 | 12060 ft | 276 kts | 273° |
| 2026-05-07 18:04 | 55.62230 | 38.75207 | 11400 ft | 274 kts | 272° |
| 2026-05-07 18:04 | 55.62402 | 38.71857 | 10723 ft | 273 kts | 272° |
| 2026-05-07 18:04 | 55.62574 | 38.68530 | 10099 ft | 271 kts | 272° |
| 2026-05-07 18:04 | 55.62747 | 38.65210 | 9461 ft | 269 kts | 272° |
| 2026-05-07 18:05 | 55.62917 | 38.61926 | 8805 ft | 267 kts | 272° |
| 2026-05-07 18:05 | 55.63084 | 38.58670 | 8182 ft | 264 kts | 272° |
| 2026-05-07 18:05 | 55.63246 | 38.55430 | 7613 ft | 267 kts | 272° |
| 2026-05-07 18:05 | 55.63406 | 38.52192 | 7505 ft | 258 kts | 272° |
| 2026-05-07 18:06 | 55.63559 | 38.49048 | 7750 ft | 257 kts | 272° |
| 2026-05-07 18:06 | 55.63709 | 38.45888 | 7935 ft | 259 kts | 271° |
| 2026-05-07 18:06 | 55.63859 | 38.42713 | 7997 ft | 258 kts | 271° |
| 2026-05-07 18:06 | 55.64012 | 38.39549 | 8002 ft | 258 kts | 272° |
| 2026-05-07 18:07 | 55.64167 | 38.36378 | 8005 ft | 258 kts | 272° |
| 2026-05-07 18:07 | 55.64323 | 38.33216 | 8005 ft | 258 kts | 272° |
| 2026-05-07 18:07 | 55.64479 | 38.30047 | 8006 ft | 258 kts | 272° |
| 2026-05-07 18:07 | 55.64831 | 38.26912 | 8006 ft | 262 kts | 283° |
| 2026-05-07 18:08 | 55.65530 | 38.23918 | 8007 ft | 266 kts | 294° |
| 2026-05-07 18:08 | 55.66563 | 38.21171 | 8006 ft | 271 kts | 304° |
| 2026-05-07 18:08 | 55.67905 | 38.18792 | 8005 ft | 276 kts | 315° |
| 2026-05-07 18:08 | 55.69523 | 38.16908 | 8005 ft | 282 kts | 327° |
| 2026-05-07 18:09 | 55.71331 | 38.15507 | 8003 ft | 283 kts | 328° |
| 2026-05-07 18:09 | 55.72875 | 38.13494 | 7746 ft | 272 kts | 305° |
| 2026-05-07 18:09 | 55.73808 | 38.10668 | 7347 ft | 263 kts | 284° |
| 2026-05-07 18:09 | 55.74063 | 38.07594 | 7192 ft | 242 kts | 265° |
| 2026-05-07 18:10 | 55.73758 | 38.04764 | 6919 ft | 228 kts | 248° |
| 2026-05-07 18:10 | 55.72997 | 38.02388 | 6471 ft | 224 kts | 230° |
| 2026-05-07 18:10 | 55.71962 | 38.00449 | 6258 ft | 210 kts | 228° |
| 2026-05-07 18:10 | 55.70977 | 37.98590 | 5813 ft | 206 kts | 229° |
| 2026-05-07 18:11 | 55.70005 | 37.96728 | 5304 ft | 206 kts | 229° |
| 2026-05-07 18:11 | 55.69343 | 37.95457 | 4946 ft | 207 kts | 229° |
| 2026-05-07 18:11 | 55.68034 | 37.92957 | 4420 ft | 210 kts | 229° |
| 2026-05-07 18:11 | 55.67046 | 37.91073 | 4182 ft | 206 kts | 229° |
| 2026-05-07 18:12 | 55.66058 | 37.89192 | 4067 ft | 210 kts | 229° |
| 2026-05-07 18:12 | 55.65063 | 37.87300 | 3926 ft | 210 kts | 229° |
| 2026-05-07 18:12 | 55.64068 | 37.85410 | 3809 ft | 211 kts | 228° |
| 2026-05-07 18:12 | 55.63065 | 37.83508 | 3692 ft | 211 kts | 228° |
| 2026-05-07 18:13 | 55.62063 | 37.81609 | 3556 ft | 211 kts | 229° |
| 2026-05-07 18:13 | 55.61058 | 37.79707 | 3445 ft | 212 kts | 228° |
| 2026-05-07 18:13 | 55.60054 | 37.77813 | 3321 ft | 212 kts | 228° |
| 2026-05-07 18:13 | 55.59046 | 37.75913 | 3200 ft | 212 kts | 228° |
| 2026-05-07 18:14 | 55.58040 | 37.74014 | 3104 ft | 211 kts | 228° |
| 2026-05-07 18:14 | 55.56960 | 37.72382 | 3008 ft | 201 kts | 207° |
| 2026-05-07 18:14 | 55.56085 | 37.71904 | 3003 ft | 200 kts | 188° |
| 2026-05-07 18:14 | 55.54709 | 37.72211 | 3007 ft | 203 kts | 162° |
| 2026-05-07 18:15 | 55.53474 | 37.73444 | 3038 ft | 206 kts | 147° |
| 2026-05-07 18:15 | 55.52299 | 37.74878 | 2896 ft | 205 kts | 147° |
| 2026-05-07 18:15 | 55.51129 | 37.76304 | 2672 ft | 203 kts | 147° |
| 2026-05-07 18:15 | 55.49993 | 37.77683 | 2423 ft | 192 kts | 147° |
| 2026-05-07 18:16 | 55.48919 | 37.78984 | 2180 ft | 182 kts | 147° |
| 2026-05-07 18:16 | 55.47923 | 37.80190 | 1974 ft | 164 kts | 147° |
| 2026-05-07 18:16 | 55.47006 | 37.81298 | 1756 ft | 156 kts | 147° |
| 2026-05-07 18:16 | 55.46126 | 37.82360 | 1553 ft | 151 kts | 146° |
| 2026-05-07 18:17 | 55.45268 | 37.83393 | 1363 ft | 148 kts | 146° |
| 2026-05-07 18:17 | 55.44422 | 37.84401 | 1191 ft | 145 kts | 145° |
| 2026-05-07 18:17 | 55.43600 | 37.85405 | 964 ft | 143 kts | 144° |
| 2026-05-07 18:17 | 55.42801 | 37.86384 | 784 ft | 141 kts | 144° |
| 2026-05-07 18:18 | 55.41990 | 37.87366 | 618 ft | 141 kts | 144° |
| 2026-05-07 18:18 | 55.41291 | 37.88206 | 583 ft | 86 kts | 146° |
| 2026-05-07 18:18 | 55.41029 | 37.88517 | 577 ft | 21 kts | 147° |
| 2026-05-07 18:18 | 55.40929 | 37.88634 | 576 ft | 14 kts | 146° |
| 2026-05-07 18:19 | 55.40869 | 37.88709 | 576 ft | 6 kts | 137° |
| 2026-05-07 18:19 | 55.40859 | 37.88727 | 576 ft | 1 kts | 133° |
| 2026-05-07 18:19 | 55.40849 | 37.88747 | 576 ft | 2 kts | 133° |
| 2026-05-07 18:19 | 55.40816 | 37.88809 | 576 ft | 12 kts | 129° |
| 2026-05-07 18:20 | 55.40761 | 37.88958 | 578 ft | 16 kts | 119° |
| 2026-05-07 18:20 | 55.40709 | 37.89152 | 574 ft | 17 kts | 104° |
| 2026-05-07 18:20 | 55.40758 | 37.89313 | 570 ft | 16 kts | 51° |
| 2026-05-07 18:20 | 55.40822 | 37.89464 | 574 ft | 15 kts | 54° |
| 2026-05-07 18:21 | 55.40895 | 37.89612 | 576 ft | 17 kts | 54° |
| 2026-05-07 18:21 | 55.40957 | 37.89778 | 573 ft | 17 kts | 56° |
| 2026-05-07 18:21 | 55.41030 | 37.89854 | 571 ft | 11 kts | 335° |
| 2026-05-07 18:21 | 55.41074 | 37.89776 | 575 ft | 7 kts | 278° |
| 2026-05-07 18:22 | 55.41051 | 37.89699 | 575 ft | 6 kts | 236° |
| 2026-05-07 18:22 | 55.41049 | 37.89694 | 578 ft | 0 kts | 236° |